createdAt,value
2023-10-07T00:02:17.035Z,4.85
2023-10-07T00:04:45.950Z,5.28
2023-10-07T00:07:15.948Z,4.70
2023-10-07T00:09:44.716Z,5.25
2023-10-07T00:12:17.174Z,5.22
2023-10-07T00:14:47.474Z,5.15
2023-10-07T00:17:18.300Z,4.47
2023-10-07T00:19:47.422Z,5.65
2023-10-07T00:22:16.033Z,5.32
2023-10-07T00:24:47.320Z,4.80
2023-10-07T00:27:28.252Z,4.88
2023-10-07T00:29:55.825Z,4.10
2023-10-07T00:32:29.820Z,4.78
2023-10-07T00:34:57.574Z,4.82
2023-10-07T00:37:25.327Z,4.65
2023-10-07T00:39:53.423Z,4.50
2023-10-07T00:42:20.922Z,4.80
2023-10-07T00:44:48.666Z,4.90
2023-10-07T00:47:16.057Z,4.80
2023-10-07T00:49:51.745Z,4.80
2023-10-07T00:52:26.770Z,4.82
2023-10-07T00:55:06.947Z,4.68
2023-10-07T00:57:34.232Z,4.38
2023-10-07T01:00:05.704Z,5.05
2023-10-07T01:02:33.133Z,4.80
2023-10-07T01:05:01.993Z,4.50
2023-10-07T01:07:29.322Z,4.95
2023-10-07T01:10:23.635Z,5.22
2023-10-07T01:12:52.674Z,4.70
2023-10-07T01:15:24.614Z,4.97
2023-10-07T01:17:58.382Z,4.68
2023-10-07T01:20:35.491Z,4.65
2023-10-07T01:23:05.310Z,4.93
2023-10-07T01:25:36.724Z,5.53
2023-10-07T01:28:05.839Z,5.03
2023-10-07T01:30:36.268Z,5.25
2023-10-07T01:33:10.331Z,5.45
2023-10-07T01:35:41.238Z,5.00
2023-10-07T01:38:09.115Z,5.65
2023-10-07T01:40:56.686Z,5.28
2023-10-07T01:43:25.910Z,4.90
2023-10-07T01:45:54.727Z,4.78
2023-10-07T01:48:22.222Z,5.07
2023-10-07T01:50:51.354Z,5.57
2023-10-07T01:53:18.675Z,5.25
2023-10-07T01:55:47.257Z,5.85
2023-10-07T01:58:15.856Z,5.40
2023-10-07T02:00:47.644Z,4.82
2023-10-07T02:03:18.075Z,5.90
2023-10-07T02:05:49.847Z,5.57
2023-10-07T02:08:23.376Z,5.75
2023-10-07T02:10:58.968Z,6.07
2023-10-07T02:13:29.401Z,5.88
2023-10-07T02:15:56.630Z,6.40
2023-10-07T02:18:24.019Z,6.22
2023-10-07T02:21:11.389Z,5.45
2023-10-07T02:23:41.686Z,5.15
2023-10-07T02:26:16.013Z,4.95
2023-10-07T02:28:52.654Z,6.07
2023-10-07T02:31:24.468Z,5.70
2023-10-07T02:33:53.561Z,5.75
2023-10-07T02:36:45.217Z,5.00
2023-10-07T02:39:32.608Z,5.22
2023-10-07T02:42:00.060Z,5.68
2023-10-07T02:44:29.136Z,4.80
2023-10-07T02:46:58.054Z,5.72
2023-10-07T02:49:26.592Z,5.72
2023-10-07T02:51:57.391Z,5.78
2023-10-07T02:54:33.381Z,5.72
2023-10-07T02:59:37.273Z,5.18
2023-10-07T03:02:18.300Z,5.47
2023-10-07T03:05:11.629Z,4.97
2023-10-07T03:07:42.981Z,5.22
2023-10-07T03:10:19.981Z,5.40
2023-10-07T03:12:58.145Z,5.85
2023-10-07T03:15:42.553Z,5.15
2023-10-07T03:18:31.661Z,4.82
2023-10-07T03:21:07.623Z,5.25
2023-10-07T03:26:04.689Z,5.88
2023-10-07T03:28:37.298Z,5.07
2023-10-07T03:31:10.259Z,4.78
2023-10-07T03:33:50.364Z,5.55
2023-10-07T03:36:24.613Z,5.20
2023-10-07T03:39:11.957Z,4.47
2023-10-07T03:41:43.001Z,4.85
2023-10-07T03:44:10.516Z,5.60
2023-10-07T03:46:39.438Z,5.22
2023-10-07T03:49:08.292Z,4.70
2023-10-07T03:51:36.489Z,5.88
2023-10-07T03:54:13.077Z,5.15
2023-10-07T03:56:40.535Z,5.38
2023-10-07T03:59:07.496Z,5.50
2023-10-07T04:01:35.015Z,4.88
2023-10-07T04:04:02.431Z,6.68
2023-10-07T04:06:32.899Z,5.55
2023-10-07T04:09:13.277Z,5.10
2023-10-07T04:11:49.382Z,5.80
2023-10-07T04:17:01.417Z,4.25
2023-10-07T04:19:29.136Z,4.65
2023-10-07T04:21:56.710Z,5.25
2023-10-07T04:24:32.624Z,5.32
2023-10-07T04:27:07.243Z,5.32
2023-10-07T04:29:34.664Z,5.07
2023-10-07T04:32:22.098Z,5.82
2023-10-07T04:35:08.247Z,5.30
2023-10-07T04:37:48.902Z,5.22
2023-10-07T04:40:16.584Z,5.45
2023-10-07T04:43:02.698Z,6.13
2023-10-07T04:45:49.961Z,5.35
2023-10-07T04:48:42.186Z,5.07
2023-10-07T04:51:13.413Z,4.72
2023-10-07T04:53:41.106Z,5.50
2023-10-07T04:56:09.253Z,5.55
2023-10-07T04:58:41.002Z,5.35
2023-10-07T05:01:38.010Z,4.95
2023-10-07T05:04:06.607Z,4.95
2023-10-07T05:06:37.405Z,5.68
2023-10-07T05:09:10.391Z,5.47
2023-10-07T05:11:39.173Z,6.03
2023-10-07T05:14:09.395Z,4.95
2023-10-07T05:16:38.229Z,4.55
2023-10-07T05:19:21.241Z,5.60
2023-10-07T05:22:11.100Z,4.88
2023-10-07T05:24:39.887Z,5.90
2023-10-07T05:27:07.338Z,5.55
2023-10-07T05:29:34.756Z,5.68
2023-10-07T05:32:02.609Z,5.95
2023-10-07T05:34:30.968Z,6.10
2023-10-07T05:37:12.926Z,6.28
2023-10-07T05:39:44.052Z,6.72
2023-10-07T05:42:13.190Z,5.95
2023-10-07T05:44:41.493Z,6.70
2023-10-07T05:47:10.829Z,5.55
2023-10-07T05:49:39.264Z,6.65
2023-10-07T05:52:06.603Z,5.55
2023-10-07T05:54:34.833Z,6.65
2023-10-07T05:57:05.270Z,5.95
2023-10-07T05:59:36.100Z,6.15
2023-10-07T06:02:08.021Z,6.28
2023-10-07T06:04:36.333Z,6.60
2023-10-07T06:07:03.748Z,5.95
2023-10-07T06:09:31.018Z,6.13
2023-10-07T06:11:58.911Z,6.22
2023-10-07T06:14:26.181Z,6.68
2023-10-07T06:16:56.928Z,6.45
2023-10-07T06:19:25.486Z,5.93
2023-10-07T06:21:52.874Z,5.68
2023-10-07T06:24:23.219Z,5.55
2023-10-07T06:26:51.174Z,5.95
2023-10-07T06:29:20.876Z,5.97
2023-10-07T06:32:14.506Z,5.90
2023-10-07T06:34:46.059Z,5.60
2023-10-07T06:37:14.038Z,6.32
2023-10-07T06:39:41.861Z,6.28
2023-10-07T06:42:11.213Z,5.72
2023-10-07T06:44:42.030Z,6.43
2023-10-07T06:47:12.739Z,6.13
2023-10-07T06:49:41.247Z,5.95
2023-10-07T06:52:08.576Z,6.18
2023-10-07T06:54:35.540Z,5.68
2023-10-07T06:57:05.661Z,5.55
2023-10-07T06:59:33.045Z,6.50
2023-10-07T07:02:07.670Z,5.38
2023-10-07T07:04:36.934Z,5.37
2023-10-07T07:07:13.411Z,5.20
2023-10-07T07:09:47.968Z,5.72
2023-10-07T07:12:19.768Z,6.30
2023-10-07T07:14:54.024Z,5.30
2023-10-07T07:17:32.184Z,6.80
2023-10-07T07:20:11.843Z,5.43
2023-10-07T07:22:45.481Z,5.25
2023-10-07T07:25:20.278Z,5.47
2023-10-07T07:27:49.465Z,5.15
2023-10-07T07:30:33.539Z,5.38
2023-10-07T07:33:07.639Z,5.10
2023-10-07T07:35:45.281Z,5.68
2023-10-07T07:38:33.745Z,5.78
2023-10-07T07:41:27.331Z,5.22
2023-10-07T07:44:00.089Z,5.45
2023-10-07T07:46:30.618Z,4.38
2023-10-07T07:49:07.341Z,4.97
2023-10-07T07:51:42.769Z,5.90
2023-10-07T07:54:10.861Z,5.22
2023-10-07T07:56:43.367Z,5.05
2023-10-07T07:59:16.981Z,5.22
2023-10-07T08:01:53.596Z,5.38
2023-10-07T08:04:41.411Z,4.85
2023-10-07T08:07:20.091Z,4.97
2023-10-07T08:09:51.502Z,4.35
2023-10-07T08:12:35.532Z,5.75
2023-10-07T08:15:15.053Z,5.20
2023-10-07T08:17:46.384Z,5.10
2023-10-07T08:20:14.679Z,5.00
2023-10-07T08:22:47.827Z,5.20
2023-10-07T08:25:26.851Z,4.70
2023-10-07T08:27:56.518Z,4.80
2023-10-07T08:30:38.385Z,5.20
2023-10-07T08:33:13.650Z,4.85
2023-10-07T08:35:44.490Z,5.63
2023-10-07T08:38:31.509Z,5.13
2023-10-07T08:41:06.660Z,4.93
2023-10-07T08:43:47.095Z,5.40
2023-10-07T08:46:18.614Z,4.95
2023-10-07T08:49:06.150Z,38.00
2023-10-07T08:51:42.224Z,44.15
2023-10-07T08:56:55.869Z,19.33
2023-10-07T08:59:28.014Z,12.98
2023-10-07T09:01:58.562Z,7.97
2023-10-07T09:04:33.213Z,6.32
2023-10-07T09:07:01.496Z,5.20
2023-10-07T09:09:39.436Z,5.07
2023-10-07T09:12:19.350Z,4.60
2023-10-07T09:14:58.742Z,4.97
2023-10-07T09:17:29.378Z,4.85
2023-10-07T09:20:00.054Z,4.40
2023-10-07T09:22:35.734Z,4.38
2023-10-07T09:25:20.222Z,4.93
2023-10-07T09:27:59.088Z,5.28
2023-10-07T09:30:36.556Z,4.88
2023-10-07T09:33:15.069Z,5.00
2023-10-07T09:35:44.853Z,5.28
2023-10-07T09:38:30.934Z,4.82
2023-10-07T09:40:58.511Z,5.15
2023-10-07T09:43:28.970Z,4.60
2023-10-07T09:45:59.474Z,5.10
2023-10-07T09:48:35.087Z,5.20
2023-10-07T09:51:03.658Z,4.70
2023-10-07T09:53:58.974Z,5.18
2023-10-07T09:56:45.993Z,4.78
2023-10-07T09:59:38.932Z,4.75
2023-10-07T10:02:44.336Z,3.97
2023-10-07T10:05:30.692Z,5.10
2023-10-07T10:08:13.607Z,5.30
2023-10-07T10:10:46.927Z,4.78
2023-10-07T10:13:30.487Z,5.00
2023-10-07T10:16:02.106Z,5.28
2023-10-07T10:18:41.946Z,5.47
2023-10-07T10:21:14.008Z,4.97
2023-10-07T10:23:43.377Z,4.38
2023-10-07T10:26:15.562Z,4.47
2023-10-07T10:28:44.928Z,4.43
2023-10-07T10:31:20.695Z,4.53
2023-10-07T10:33:51.655Z,5.22
2023-10-07T10:36:23.218Z,4.82
2023-10-07T10:38:50.475Z,5.30
2023-10-07T10:41:37.873Z,5.05
2023-10-07T10:44:08.161Z,5.28
2023-10-07T10:46:48.599Z,5.70
2023-10-07T10:49:17.862Z,6.05
2023-10-07T10:51:47.196Z,6.13
2023-10-07T10:54:16.568Z,6.40
2023-10-07T10:56:58.879Z,4.85
2023-10-07T10:59:49.688Z,4.78
2023-10-07T11:02:24.091Z,5.40
2023-10-07T11:04:54.171Z,5.00
2023-10-07T11:07:23.863Z,4.40
2023-10-07T11:09:53.847Z,4.05
2023-10-07T11:12:27.939Z,4.45
2023-10-07T11:15:15.439Z,4.68
2023-10-07T11:17:43.433Z,4.00
2023-10-07T11:20:14.114Z,4.43
2023-10-07T11:22:41.694Z,3.67
2023-10-07T11:25:15.769Z,3.88
2023-10-07T11:27:48.099Z,3.70
2023-10-07T11:30:18.770Z,4.10
2023-10-07T11:32:45.843Z,4.18
2023-10-07T11:35:29.129Z,4.30
2023-10-07T11:38:00.293Z,4.05
2023-10-07T11:40:31.765Z,3.60
2023-10-07T11:43:05.653Z,4.35
2023-10-07T11:45:33.448Z,3.97
2023-10-07T11:48:00.468Z,3.92
2023-10-07T11:50:36.193Z,3.22
2023-10-07T11:53:04.291Z,4.25
2023-10-07T11:55:34.583Z,4.05
2023-10-07T11:58:02.219Z,3.70
2023-10-07T12:00:30.675Z,4.43
2023-10-07T12:03:01.534Z,4.28
2023-10-07T12:05:29.591Z,3.63
2023-10-07T12:08:03.690Z,4.07
2023-10-07T12:10:38.422Z,3.55
2023-10-07T12:13:08.502Z,4.63
2023-10-07T12:15:39.193Z,3.28
2023-10-07T12:18:08.478Z,3.50
2023-10-07T12:20:35.839Z,4.05
2023-10-07T12:23:03.480Z,3.15
2023-10-07T12:25:32.470Z,3.72
2023-10-07T12:27:59.764Z,3.10
2023-10-07T12:30:28.776Z,3.30
2023-10-07T12:32:55.804Z,2.90
2023-10-07T12:35:24.599Z,3.33
2023-10-07T12:37:54.510Z,3.03
2023-10-07T12:40:21.985Z,3.70
2023-10-07T12:42:53.571Z,3.55
2023-10-07T12:45:21.075Z,4.05
2023-10-07T12:47:52.651Z,3.72
2023-10-07T12:50:40.704Z,3.28
2023-10-07T12:53:11.974Z,3.22
2023-10-07T12:55:40.522Z,3.45
2023-10-07T12:58:10.425Z,2.90
2023-10-07T13:00:37.714Z,2.85
2023-10-07T13:03:08.573Z,2.80
2023-10-07T13:05:39.242Z,3.30
2023-10-07T13:08:13.640Z,2.45
2023-10-07T13:10:41.465Z,3.40
2023-10-07T13:13:09.111Z,3.00
2023-10-07T13:15:36.733Z,3.22
2023-10-07T13:18:04.279Z,3.25
2023-10-07T13:20:34.914Z,2.95
2023-10-07T13:23:04.812Z,3.08
2023-10-07T13:25:34.791Z,2.92
2023-10-07T13:28:03.186Z,3.00
2023-10-07T13:30:31.420Z,2.40
2023-10-07T13:32:59.114Z,2.40
2023-10-07T13:35:28.844Z,3.13
2023-10-07T13:37:58.156Z,3.17
2023-10-07T13:40:25.408Z,2.85
2023-10-07T13:42:54.446Z,2.60
2023-10-07T13:45:23.064Z,3.13
2023-10-07T13:47:50.868Z,3.00
2023-10-07T13:50:22.000Z,3.20
2023-10-07T13:52:59.892Z,3.20
2023-10-07T13:55:35.080Z,2.90
2023-10-07T13:58:02.258Z,3.15
2023-10-07T14:00:35.740Z,3.65
2023-10-07T14:03:07.277Z,3.28
2023-10-07T14:05:37.694Z,3.08
2023-10-07T14:08:17.256Z,2.78
2023-10-07T14:10:49.123Z,3.00
2023-10-07T14:13:16.576Z,2.60
2023-10-07T14:15:43.471Z,2.90
2023-10-07T14:18:10.568Z,3.03
2023-10-07T14:20:37.600Z,2.83
2023-10-07T14:23:04.738Z,3.08
2023-10-07T14:25:31.643Z,2.78
2023-10-07T14:27:59.925Z,3.10
2023-10-07T14:30:30.198Z,3.08
2023-10-07T14:32:57.494Z,3.05
2023-10-07T14:35:24.521Z,2.63
2023-10-07T14:37:51.437Z,2.55
2023-10-07T14:40:19.252Z,3.08
2023-10-07T14:42:47.462Z,2.78
2023-10-07T14:45:14.469Z,2.72
2023-10-07T14:47:41.730Z,3.00
2023-10-07T14:50:09.031Z,3.10
2023-10-07T14:52:37.096Z,3.13
2023-10-07T14:55:07.599Z,2.90
2023-10-07T14:57:36.362Z,2.60
2023-10-07T15:00:12.118Z,3.17
2023-10-07T15:02:40.571Z,2.53
2023-10-07T15:05:09.675Z,2.78
2023-10-07T15:07:36.804Z,3.08
2023-10-07T15:10:05.700Z,3.17
2023-10-07T15:12:33.574Z,2.58
2023-10-07T15:15:00.474Z,3.03
2023-10-07T15:17:27.407Z,2.67
2023-10-07T15:19:54.950Z,3.22
2023-10-07T15:22:22.160Z,3.03
2023-10-07T15:24:50.521Z,2.88
2023-10-07T15:27:17.759Z,3.13
2023-10-07T15:29:44.643Z,2.83
2023-10-07T15:32:14.388Z,2.45
2023-10-07T15:34:41.302Z,2.85
2023-10-07T15:37:08.164Z,2.67
2023-10-07T15:39:36.157Z,3.40
2023-10-07T15:42:03.273Z,3.22
2023-10-07T15:44:30.184Z,3.10
2023-10-07T15:46:57.249Z,2.78
2023-10-07T15:49:24.239Z,2.83
2023-10-07T15:51:52.997Z,2.78
2023-10-07T15:54:20.599Z,2.60
2023-10-07T15:56:47.535Z,3.30
2023-10-07T15:59:15.526Z,3.50
2023-10-07T16:01:48.205Z,2.72
2023-10-07T16:04:16.486Z,3.15
2023-10-07T16:06:47.839Z,3.13
2023-10-07T16:09:15.589Z,3.08
2023-10-07T16:11:43.205Z,2.47
2023-10-07T16:14:11.381Z,2.80
2023-10-07T16:16:39.200Z,3.13
2023-10-07T16:19:08.104Z,2.78
2023-10-07T16:21:39.593Z,2.90
2023-10-07T16:24:12.487Z,3.17
2023-10-07T16:26:40.711Z,3.05
2023-10-07T16:29:08.710Z,2.58
2023-10-07T16:31:36.356Z,3.10
2023-10-07T16:34:04.091Z,2.83
2023-10-07T16:36:31.665Z,2.55
2023-10-07T16:39:01.390Z,2.88
2023-10-07T16:41:30.030Z,3.17
2023-10-07T16:43:57.438Z,3.45
2023-10-07T16:46:26.538Z,3.38
2023-10-07T16:48:54.049Z,2.83
2023-10-07T16:51:21.316Z,3.17
2023-10-07T16:53:48.910Z,3.33
2023-10-07T16:56:16.442Z,2.75
2023-10-07T16:58:44.354Z,2.92
2023-10-07T17:01:13.222Z,3.15
2023-10-07T17:03:40.724Z,2.95
2023-10-07T17:06:09.930Z,3.50
2023-10-07T17:08:37.627Z,3.15
2023-10-07T17:11:05.158Z,3.15
2023-10-07T17:13:32.223Z,2.88
2023-10-07T17:16:00.224Z,2.88
2023-10-07T17:18:28.518Z,3.28
2023-10-07T17:20:59.750Z,3.20
2023-10-07T17:23:28.133Z,3.25
2023-10-07T17:25:56.187Z,3.08
2023-10-07T17:28:23.996Z,3.05
2023-10-07T17:30:51.365Z,3.10
2023-10-07T17:33:21.997Z,2.97
2023-10-07T17:35:49.609Z,2.72
2023-10-07T17:38:16.882Z,2.40
2023-10-07T17:40:44.336Z,3.47
2023-10-07T17:43:11.835Z,2.75
2023-10-07T17:45:46.037Z,3.00
2023-10-07T17:48:13.554Z,2.60
2023-10-07T17:50:41.785Z,2.78
2023-10-07T17:53:10.614Z,2.97
2023-10-07T17:55:38.186Z,2.85
2023-10-07T17:58:05.881Z,3.05
2023-10-07T18:00:34.996Z,2.65
2023-10-07T18:03:03.787Z,3.78
2023-10-07T18:05:31.954Z,2.97
2023-10-07T18:07:58.984Z,2.65
2023-10-07T18:10:30.354Z,2.53
2023-10-07T18:12:58.283Z,2.95
2023-10-07T18:15:25.632Z,2.72
2023-10-07T18:17:53.041Z,2.67
2023-10-07T18:20:20.164Z,3.00
2023-10-07T18:22:55.496Z,3.35
2023-10-07T18:25:23.202Z,2.92
2023-10-07T18:27:51.320Z,3.60
2023-10-07T18:30:20.235Z,3.40
2023-10-07T18:32:51.478Z,2.90
2023-10-07T18:35:19.078Z,3.28
2023-10-07T18:37:46.419Z,2.70
2023-10-07T18:40:18.268Z,3.45
2023-10-07T18:42:47.167Z,3.00
2023-10-07T18:45:14.848Z,2.97
2023-10-07T18:47:42.793Z,3.13
2023-10-07T18:50:10.404Z,3.33
2023-10-07T18:52:37.441Z,3.13
2023-10-07T18:55:04.825Z,3.33
2023-10-07T18:57:32.043Z,2.70
2023-10-07T18:59:59.432Z,3.15
2023-10-07T19:02:26.462Z,3.17
2023-10-07T19:04:53.851Z,3.15
2023-10-07T19:07:21.140Z,3.20
2023-10-07T19:09:48.559Z,2.97
2023-10-07T19:12:18.210Z,2.55
2023-10-07T19:14:48.169Z,3.05
2023-10-07T19:17:15.179Z,3.00
2023-10-07T19:19:43.155Z,2.80
2023-10-07T19:22:10.643Z,3.25
2023-10-07T19:24:38.069Z,3.08
2023-10-07T19:27:05.161Z,2.88
2023-10-07T19:29:32.113Z,3.17
2023-10-07T19:32:00.041Z,2.90
2023-10-07T19:34:27.200Z,2.95
2023-10-07T19:36:54.594Z,2.92
2023-10-07T19:39:39.723Z,2.55
2023-10-07T19:42:09.145Z,3.38
2023-10-07T19:44:36.164Z,3.10
2023-10-07T19:47:04.318Z,2.72
2023-10-07T19:49:31.647Z,2.60
2023-10-07T19:51:59.140Z,2.78
2023-10-07T19:54:26.704Z,2.78
2023-10-07T19:56:53.597Z,3.40
2023-10-07T19:59:21.330Z,2.80
2023-10-07T20:01:49.920Z,3.17
2023-10-07T20:04:17.309Z,3.45
2023-10-07T20:06:44.683Z,2.80
2023-10-07T20:09:12.594Z,2.67
2023-10-07T20:11:41.627Z,3.30
2023-10-07T20:14:08.641Z,2.80
2023-10-07T20:16:36.058Z,2.88
2023-10-07T20:19:06.379Z,2.95
2023-10-07T20:21:34.610Z,3.05
2023-10-07T20:24:01.514Z,2.88
2023-10-07T20:26:29.276Z,3.22
2023-10-07T20:28:56.188Z,3.00
2023-10-07T20:31:23.607Z,3.30
2023-10-07T20:33:51.096Z,2.65
2023-10-07T20:36:18.376Z,2.80
2023-10-07T20:38:45.943Z,2.95
2023-10-07T20:41:14.100Z,3.15
2023-10-07T20:43:41.213Z,2.70
2023-10-07T20:46:08.310Z,2.72
2023-10-07T20:48:35.921Z,2.75
2023-10-07T20:51:08.310Z,3.28
2023-10-07T20:53:36.843Z,3.20
2023-10-07T20:56:05.217Z,2.83
2023-10-07T20:58:32.238Z,3.30
2023-10-07T21:00:59.792Z,2.85
2023-10-07T21:03:27.344Z,2.22
2023-10-07T21:05:55.219Z,3.08
2023-10-07T21:08:22.860Z,3.28
2023-10-07T21:10:50.237Z,3.28
2023-10-07T21:13:17.882Z,2.65
2023-10-07T21:15:44.914Z,2.65
2023-10-07T21:18:12.246Z,2.90
2023-10-07T21:20:44.281Z,2.97
2023-10-07T21:23:12.610Z,2.90
2023-10-07T21:25:44.306Z,2.80
2023-10-07T21:28:12.309Z,2.78
2023-10-07T21:30:40.303Z,3.20
2023-10-07T21:33:08.819Z,2.75
2023-10-07T21:35:43.316Z,3.00
2023-10-07T21:38:12.599Z,3.97
2023-10-07T21:40:42.115Z,3.08
2023-10-07T21:43:10.307Z,2.63
2023-10-07T21:45:38.356Z,2.58
2023-10-07T21:48:06.486Z,3.25
2023-10-07T21:50:37.095Z,3.58
2023-10-07T21:53:05.294Z,2.78
2023-10-07T21:55:34.336Z,3.03
2023-10-07T21:58:03.082Z,2.85
2023-10-07T22:00:30.499Z,2.83
2023-10-07T22:02:59.758Z,2.70
2023-10-07T22:05:29.265Z,2.70
2023-10-07T22:07:57.783Z,2.67
2023-10-07T22:10:27.115Z,2.67
2023-10-07T22:12:54.932Z,3.08
2023-10-07T22:15:22.600Z,3.13
2023-10-07T22:17:53.072Z,2.90
2023-10-07T22:20:23.071Z,2.80
2023-10-07T22:22:51.381Z,3.35
2023-10-07T22:25:18.777Z,2.75
2023-10-07T22:27:47.708Z,2.72
2023-10-07T22:30:22.532Z,2.50
2023-10-07T22:32:49.947Z,2.78
2023-10-07T22:35:35.070Z,2.72
2023-10-07T22:38:14.313Z,3.17
2023-10-07T22:40:42.369Z,2.75
2023-10-07T22:43:16.075Z,2.60
2023-10-07T22:45:46.159Z,2.78
2023-10-07T22:48:21.199Z,3.20
2023-10-07T22:51:10.836Z,2.60
2023-10-07T22:53:51.045Z,2.83
2023-10-07T22:56:20.892Z,4.10
2023-10-07T22:58:50.000Z,2.30
2023-10-07T23:01:40.757Z,2.83
2023-10-07T23:04:15.442Z,2.83
2023-10-07T23:06:56.813Z,2.67
2023-10-07T23:10:00.882Z,2.72
2023-10-07T23:12:32.137Z,3.30
2023-10-07T23:15:00.259Z,3.15
2023-10-07T23:17:32.792Z,2.72
2023-10-07T23:20:08.941Z,2.65
2023-10-07T23:22:41.212Z,2.97
2023-10-07T23:25:19.841Z,3.22
2023-10-07T23:27:50.594Z,3.10
2023-10-07T23:30:28.500Z,3.15
2023-10-07T23:33:00.222Z,2.70
2023-10-07T23:35:32.318Z,2.80
2023-10-07T23:38:02.537Z,2.92
2023-10-07T23:40:31.300Z,3.30
2023-10-07T23:43:05.752Z,3.10
2023-10-07T23:45:40.513Z,2.83
2023-10-07T23:48:13.259Z,2.53
2023-10-07T23:50:43.760Z,3.05
2023-10-07T23:53:25.680Z,2.90
2023-10-07T23:56:12.585Z,3.33
2023-10-07T23:58:51.446Z,3.17
